Time;durP1;ratioP1;P1;durP2;ratioP2;P2;SDS_P1;SDS_P2;PMS_P1;PMS_P2;Temp;Humidity;BMP_temperature;BMP_pressure;BME280_temperature;BME280_humidity;BME280_pressure;Samples;Min_cycle;Max_cycle;Signal;HPM_P1;HPM_P2
2021/07/13 00:01:31;;;;;;;11.27;8.55;;;;;;;20.22;68.95;95010.09;5087195;28;20544;-67
2021/07/13 00:03:58;;;;;;;14.35;10.07;;;;;;;20.21;69.61;95010.38;5085616;28;20071;-68
2021/07/13 00:06:43;;;;;;;11.25;9.35;;;;;;;20.11;70.34;95006.00;5085999;28;20032;-67
2021/07/13 00:09:10;;;;;;;20.40;10.27;;;;;;;20.09;70.63;95010.00;5086368;28;20502;-68
2021/07/13 00:11:37;;;;;;;11.40;9.98;;;;;;;20.13;70.96;95018.94;5069836;28;20048;-67
2021/07/13 00:14:05;;;;;;;11.93;10.02;;;;;;;20.12;70.40;95020.03;5085182;28;20052;-68
2021/07/13 00:16:32;;;;;;;14.73;9.52;;;;;;;20.08;70.59;95013.72;5086137;28;20498;-67
2021/07/13 00:19:00;;;;;;;13.80;10.23;;;;;;;20.10;70.77;95016.88;5086377;28;20075;-67
2021/07/13 00:21:27;;;;;;;12.07;9.95;;;;;;;20.11;70.89;95018.44;5086274;28;20044;-67
2021/07/13 00:23:54;;;;;;;13.75;11.00;;;;;;;20.16;70.65;95023.66;5085390;28;20532;-67
2021/07/13 00:26:21;;;;;;;13.30;10.95;;;;;;;20.16;70.26;95023.66;5085945;28;20043;-67
2021/07/13 00:28:48;;;;;;;13.07;9.63;;;;;;;20.14;70.80;95025.81;5086137;28;20114;-68
2021/07/13 00:31:15;;;;;;;15.48;10.05;;;;;;;20.09;71.15;95028.50;5086248;28;20092;-67
2021/07/13 00:33:42;;;;;;;10.95;9.85;;;;;;;19.92;71.83;95013.94;5086128;28;20820;-67
2021/07/13 00:36:08;;;;;;;15.55;10.20;;;;;;;19.94;72.09;95024.22;5086125;28;20429;-67
2021/07/13 00:38:35;;;;;;;16.10;9.98;;;;;;;19.95;71.69;95023.94;5085839;28;20047;-67
2021/07/13 00:41:02;;;;;;;16.23;9.98;;;;;;;20.00;71.69;95031.78;5086092;28;20515;-67
2021/07/13 00:43:29;;;;;;;15.55;10.90;;;;;;;19.95;71.75;95021.31;5083384;28;20040;-67
2021/07/13 00:45:56;;;;;;;13.27;9.48;;;;;;;20.02;71.19;95019.09;5086134;28;20052;-67
2021/07/13 00:48:23;;;;;;;13.23;11.18;;;;;;;20.03;70.81;95015.38;5085762;28;20109;-67
2021/07/13 00:50:54;;;;;;;10.90;9.68;;;;;;;20.10;70.76;95019.53;5085868;28;20417;-67
2021/07/13 00:53:21;;;;;;;17.05;10.40;;;;;;;19.99;71.47;95030.22;5085713;28;20060;-67
2021/07/13 00:55:48;;;;;;;13.90;9.98;;;;;;;19.95;71.67;95029.25;5085933;28;20044;-67
2021/07/13 00:58:15;;;;;;;14.18;10.73;;;;;;;19.83;72.22;95020.94;5101386;27;20489;-67
2021/07/13 01:00:41;;;;;;;11.60;10.23;;;;;;;19.82;71.97;95024.63;5085897;28;20465;-67
2021/07/13 01:03:09;;;;;;;14.05;11.07;;;;;;;19.79;72.62;95025.19;5085745;28;20040;-67
2021/07/13 01:05:43;;;;;;;12.10;9.98;;;;;;;19.80;72.69;95032.06;5084498;28;22019;-68
2021/07/13 01:08:28;;;;;;;10.60;9.55;;;;;;;19.72;73.07;95022.91;5067127;28;20043;-67
2021/07/13 01:11:14;;;;;;;20.15;10.52;;;;;;;19.66;73.12;95016.91;5085395;28;20035;-67
2021/07/13 01:13:50;;;;;;;15.82;11.35;;;;;;;19.58;73.70;95020.16;5084334;28;20032;-68
2021/07/13 01:16:44;;;;;;;13.18;10.57;;;;;;;19.52;74.27;95010.72;5085628;28;20040;-67
2021/07/13 01:19:31;;;;;;;12.70;10.45;;;;;;;19.47;74.40;95013.44;5087143;28;20039;-67
2021/07/13 01:22:24;;;;;;;14.20;10.73;;;;;;;19.46;74.51;95011.84;5084209;28;20167;-68
2021/07/13 01:25:14;;;;;;;17.30;12.10;;;;;;;19.48;74.26;95009.69;5075208;28;20055;-67
2021/07/13 01:28:08;;;;;;;12.80;10.43;;;;;;;19.48;74.23;95009.69;5086874;28;20040;-67
2021/07/13 01:30:43;;;;;;;14.38;11.18;;;;;;;19.48;74.60;95009.69;5084934;28;20090;-67
2021/07/13 01:33:21;;;;;;;18.38;10.52;;;;;;;19.43;75.07;95007.16;5085034;28;20024;-67
2021/07/13 01:35:51;;;;;;;17.35;11.60;;;;;;;19.41;75.19;95014.53;5084351;28;20055;-68
2021/07/13 01:38:23;;;;;;;12.88;10.98;;;;;;;19.40;74.31;95015.63;5084988;28;20054;-67
2021/07/13 01:40:56;;;;;;;16.15;10.55;;;;;;;19.42;74.09;95016.91;5066814;28;20058;-67
2021/07/13 01:43:23;;;;;;;17.17;11.10;;;;;;;19.50;73.37;95018.16;5084185;28;20036;-68
2021/07/13 01:45:50;;;;;;;17.20;10.63;;;;;;;19.53;72.92;95016.78;5083805;28;20052;-67
2021/07/13 01:48:18;;;;;;;12.70;10.43;;;;;;;19.48;72.77;95009.69;5083737;28;20055;-67
2021/07/13 01:50:50;;;;;;;17.88;10.25;;;;;;;19.59;72.96;95027.03;5085431;28;20040;-67
2021/07/13 01:53:18;;;;;;;13.20;10.57;;;;;;;19.63;72.58;95024.59;5085564;28;20413;-67
2021/07/13 01:55:47;;;;;;;12.20;10.70;;;;;;;19.59;73.17;95021.72;5089688;28;20127;-68
2021/07/13 01:58:15;;;;;;;12.73;10.77;;;;;;;19.58;72.88;95025.44;5087866;28;20036;-67
2021/07/13 02:00:43;;;;;;;15.45;10.57;;;;;;;19.55;72.41;95026.00;5088986;28;20047;-67
2021/07/13 02:03:11;;;;;;;13.98;10.38;;;;;;;19.56;72.70;95027.56;5088840;28;20028;-68
2021/07/13 02:05:38;;;;;;;24.63;12.25;;;;;;;19.51;72.43;95027.63;5088791;28;20472;-68
2021/07/13 02:08:06;;;;;;;16.02;10.38;;;;;;;19.48;72.79;95025.53;5088558;28;20503;-67
2021/07/13 02:10:34;;;;;;;16.60;10.65;;;;;;;19.37;73.78;95013.53;5090687;28;20040;-67
2021/07/13 02:13:03;;;;;;;20.63;10.90;;;;;;;19.36;73.95;95011.97;5088677;28;20036;-67
2021/07/13 02:15:30;;;;;;;14.60;10.57;;;;;;;19.25;73.91;95006.81;5088465;28;20425;-67
2021/07/13 02:17:57;;;;;;;16.98;11.80;;;;;;;19.40;73.94;95029.59;5088735;28;20043;-67
2021/07/13 02:20:24;;;;;;;17.85;13.07;;;;;;;19.23;73.91;95030.06;5088419;28;20040;-67
2021/07/13 02:22:51;;;;;;;15.95;12.82;;;;;;;19.23;74.14;95027.44;5087988;28;20038;-67
2021/07/13 02:25:18;;;;;;;14.57;12.60;;;;;;;19.16;74.55;95028.81;5088226;28;20047;-67
2021/07/13 02:28:06;;;;;;;17.40;13.20;;;;;;;19.05;74.95;95025.47;5088656;28;20040;-67
2021/07/13 02:30:35;;;;;;;15.05;12.73;;;;;;;19.04;74.59;95026.56;5072025;28;20062;-68
2021/07/13 02:33:10;;;;;;;15.98;11.90;;;;;;;19.02;74.92;95028.69;5088346;28;20036;-67
2021/07/13 02:35:43;;;;;;;20.08;12.93;;;;;;;18.97;74.80;95015.53;5088254;28;20036;-67
2021/07/13 02:38:11;;;;;;;18.52;13.55;;;;;;;19.01;74.64;95019.19;5087561;28;20056;-68
2021/07/13 02:40:39;;;;;;;18.98;12.60;;;;;;;18.99;74.70;95018.69;5087926;28;20051;-68
2021/07/13 02:43:06;;;;;;;22.83;13.63;;;;;;;18.98;74.89;95017.91;5087547;28;20032;-67
2021/07/13 02:45:35;;;;;;;24.13;12.88;;;;;;;18.96;74.95;95019.25;5102615;28;20040;-67
2021/07/13 02:48:02;;;;;;;18.83;11.98;;;;;;;18.91;75.80;95018.22;5087988;28;20401;-67
2021/07/13 02:50:30;;;;;;;19.73;12.43;;;;;;;18.88;76.02;95018.00;5087931;28;20063;-67
2021/07/13 02:52:59;;;;;;;21.50;13.32;;;;;;;18.86;76.00;95020.91;5087611;28;20046;-67
2021/07/13 02:55:29;;;;;;;23.10;13.18;;;;;;;18.82;76.31;95019.91;5088034;28;20052;-67
2021/07/13 02:57:57;;;;;;;18.73;14.27;;;;;;;18.74;77.28;95023.09;5068559;28;20398;-67
2021/07/13 03:00:24;;;;;;;18.55;14.20;;;;;;;18.70;77.65;95032.63;5087702;28;20052;-67
2021/07/13 03:02:51;;;;;;;19.45;12.38;;;;;;;18.58;78.08;95019.03;5087916;28;20434;-67
2021/07/13 03:05:20;;;;;;;15.95;12.32;;;;;;;18.52;78.26;95029.59;5086268;28;20047;-67
2021/07/13 03:07:48;;;;;;;23.27;13.32;;;;;;;18.53;78.27;95023.28;5087561;28;20036;-67
2021/07/13 03:10:19;;;;;;;19.42;16.13;;;;;;;18.43;78.27;95028.63;5088000;28;20047;-67
2021/07/13 03:12:48;;;;;;;18.70;13.10;;;;;;;18.35;78.98;95021.31;5087471;28;20123;-67
2021/07/13 03:15:19;;;;;;;19.63;13.82;;;;;;;18.22;78.77;95016.66;5088531;28;20044;-67
2021/07/13 03:17:47;;;;;;;18.70;13.60;;;;;;;18.26;78.98;95036.94;5086849;28;20140;-67
2021/07/13 03:20:14;;;;;;;21.27;13.98;;;;;;;18.34;78.83;95032.91;5086422;28;20417;-67
2021/07/13 03:22:47;;;;;;;19.30;13.23;;;;;;;18.37;78.71;95021.81;5086631;28;20032;-67
2021/07/13 03:25:18;;;;;;;16.73;12.52;;;;;;;18.49;78.65;95027.53;5067934;28;20047;-67
2021/07/13 03:27:47;;;;;;;31.58;15.30;;;;;;;18.58;77.94;95019.03;5086573;28;20032;-67
2021/07/13 03:30:16;;;;;;;20.48;12.90;;;;;;;18.62;78.14;95025.31;5086717;28;20036;-67
2021/07/13 03:32:45;;;;;;;17.45;13.43;;;;;;;18.62;77.91;95025.31;5085951;28;20521;-67
2021/07/13 03:35:12;;;;;;;39.47;13.65;;;;;;;18.62;77.20;95018.19;5086343;28;20121;-67
2021/07/13 03:37:39;;;;;;;50.05;14.85;;;;;;;18.65;77.45;95016.84;5086563;28;20055;-67
2021/07/13 03:40:08;;;;;;;58.60;14.60;;;;;;;18.72;77.24;95025.22;5068787;28;20094;-68
2021/07/13 03:42:36;;;;;;;52.03;15.00;;;;;;;18.75;77.38;95029.97;5086421;28;20036;-68
2021/07/13 03:45:04;;;;;;;50.20;14.38;;;;;;;18.77;77.12;95033.09;5086901;28;20117;-67
2021/07/13 03:47:31;;;;;;;39.17;15.52;;;;;;;18.81;76.92;95038.63;5085223;28;20067;-67
2021/07/13 03:49:58;;;;;;;35.80;13.63;;;;;;;18.77;76.84;95027.06;5087715;28;20040;-67
2021/07/13 03:52:25;;;;;;;18.45;12.82;;;;;;;18.86;76.82;95035.97;5086747;28;20040;-68
2021/07/13 03:54:52;;;;;;;18.25;13.18;;;;;;;18.88;76.42;95031.19;5086994;28;20044;-68
2021/07/13 03:57:19;;;;;;;22.67;14.85;;;;;;;18.94;76.02;95026.66;5086764;28;20072;-68
2021/07/13 03:59:47;;;;;;;26.00;16.48;;;;;;;18.97;75.78;95042.72;5086893;28;20501;-68
2021/07/13 04:02:14;;;;;;;26.77;16.48;;;;;;;19.00;75.62;95030.84;5087042;28;20063;-68
2021/07/13 04:04:41;;;;;;;32.30;16.40;;;;;;;19.01;75.97;95017.34;5088083;28;20111;-68
2021/07/13 04:07:07;;;;;;;24.10;17.52;;;;;;;19.08;75.99;95035.50;5086453;28;20429;-68
2021/07/13 04:09:35;;;;;;;29.45;16.25;;;;;;;19.06;76.56;95034.97;5086652;28;20505;-67
2021/07/13 04:12:02;;;;;;;25.85;14.18;;;;;;;19.04;76.40;95026.56;5088248;28;20048;-67
2021/07/13 04:14:29;;;;;;;31.20;13.75;;;;;;;19.12;76.19;95028.56;5066959;28;20076;-67
2021/07/13 04:16:56;;;;;;;35.03;15.43;;;;;;;19.22;75.58;95031.13;5085731;28;20494;-68
2021/07/13 04:19:22;;;;;;;21.75;13.07;;;;;;;19.26;75.83;95040.03;5069432;28;20039;-68
2021/07/13 04:21:49;;;;;;;22.30;14.73;;;;;;;19.25;75.61;95033.22;5086402;28;20401;-67
2021/07/13 04:24:17;;;;;;;24.27;13.57;;;;;;;19.40;75.48;95034.09;5085892;28;20036;-67
2021/07/13 04:26:43;;;;;;;19.02;14.25;;;;;;;19.50;75.14;95028.72;5086468;28;20115;-68
2021/07/13 04:29:10;;;;;;;24.13;14.68;;;;;;;19.51;74.96;95018.94;5086156;28;20063;-67
2021/07/13 04:31:37;;;;;;;21.90;14.93;;;;;;;19.60;74.74;95018.00;5086271;28;20036;-67
2021/07/13 04:34:09;;;;;;;22.92;14.63;;;;;;;19.68;74.41;95017.41;5085817;28;20497;-68
2021/07/13 04:36:37;;;;;;;21.90;12.95;;;;;;;19.79;74.14;95019.91;5085982;28;20459;-68
2021/07/13 04:39:06;;;;;;;20.58;13.07;;;;;;;19.84;74.16;95022.50;5085933;28;20048;-67
2021/07/13 04:41:33;;;;;;;20.23;14.00;;;;;;;19.88;73.97;95017.44;5086224;28;20040;-68
2021/07/13 04:44:01;;;;;;;20.48;14.27;;;;;;;19.97;73.92;95021.00;5085359;28;20043;-68
2021/07/13 04:46:28;;;;;;;22.30;12.93;;;;;;;20.08;73.58;95017.16;5085886;28;20048;-67
2021/07/13 04:48:56;;;;;;;16.65;12.68;;;;;;;20.11;74.76;95010.50;5085654;28;20040;-68
2021/07/13 04:51:24;;;;;;;23.13;13.55;;;;;;;20.07;77.28;95009.50;5084721;28;20051;-67
2021/07/13 04:53:51;;;;;;;17.95;13.57;;;;;;;19.99;76.98;95009.09;5065287;28;20036;-67
2021/07/13 04:56:18;;;;;;;22.00;13.90;;;;;;;19.96;76.53;95009.66;5085532;28;20036;-67
2021/07/13 04:58:45;;;;;;;20.73;13.40;;;;;;;19.90;75.61;95010.81;5085660;28;20043;-68
2021/07/13 05:01:12;;;;;;;19.00;15.02;;;;;;;19.87;75.81;95006.06;5085553;28;20489;-68
2021/07/13 05:03:39;;;;;;;22.73;14.05;;;;;;;20.05;75.49;95017.72;5085371;28;20047;-67
2021/07/13 05:06:06;;;;;;;17.38;14.52;;;;;;;19.99;76.55;95014.38;5087024;28;20043;-68
2021/07/13 05:08:33;;;;;;;24.92;14.93;;;;;;;20.15;75.40;95017.59;5085482;28;20120;-67
2021/07/13 05:11:00;;;;;;;16.15;13.43;;;;;;;20.18;75.08;95010.94;5085178;28;20040;-68
2021/07/13 05:13:27;;;;;;;19.38;14.63;;;;;;;20.34;74.39;95025.50;5085332;28;20040;-67
2021/07/13 05:15:54;;;;;;;23.48;14.80;;;;;;;20.31;73.98;95009.41;5085257;28;20044;-67
2021/07/13 05:18:22;;;;;;;22.77;16.13;;;;;;;20.52;74.89;95025.75;5085244;28;20044;-68
2021/07/13 05:20:54;;;;;;;21.73;15.20;;;;;;;20.61;74.13;95024.06;5085785;28;20048;-68
2021/07/13 05:23:20;;;;;;;23.15;14.52;;;;;;;20.67;74.29;95022.91;5085186;28;20040;-68
2021/07/13 05:25:47;;;;;;;16.90;13.73;;;;;;;20.71;73.82;95028.41;5085331;28;20111;-68
2021/07/13 05:28:14;;;;;;;21.77;13.95;;;;;;;20.81;72.88;95023.75;5084797;28;20044;-67
2021/07/13 05:30:43;;;;;;;22.60;13.23;;;;;;;20.81;73.32;95018.44;5084965;28;20071;-67
2021/07/13 05:33:12;;;;;;;30.70;15.75;;;;;;;20.91;72.59;95032.59;5085248;28;20032;-68
2021/07/13 05:35:39;;;;;;;17.45;13.57;;;;;;;20.92;72.89;95018.25;5084958;28;20051;-67
2021/07/13 05:38:06;;;;;;;20.60;13.80;;;;;;;20.99;72.26;95018.66;5084726;28;20048;-68
2021/07/13 05:40:34;;;;;;;22.98;14.05;;;;;;;21.05;72.41;95016.69;5084928;28;20048;-67
2021/07/13 05:43:02;;;;;;;18.70;13.27;;;;;;;21.16;71.34;95010.94;5084238;28;20036;-67
2021/07/13 05:45:29;;;;;;;23.25;12.98;;;;;;;21.18;71.62;95015.94;5084584;28;20131;-68
2021/07/13 05:47:56;;;;;;;21.77;12.35;;;;;;;21.30;70.75;95016.25;5085044;28;20051;-67
2021/07/13 05:50:23;;;;;;;29.50;13.98;;;;;;;21.36;71.17;95016.94;5084937;28;20040;-68
2021/07/13 05:52:50;;;;;;;16.15;12.27;;;;;;;21.36;70.39;95001.81;5084763;28;20059;-67
2021/07/13 05:55:17;;;;;;;18.10;13.52;;;;;;;21.46;70.37;95011.44;5085150;28;20055;-67
2021/07/13 05:57:43;;;;;;;19.98;13.02;;;;;;;21.58;69.37;95003.78;5084021;28;20505;-68
2021/07/13 06:00:11;;;;;;;18.33;13.18;;;;;;;21.79;68.61;95016.63;5066569;28;20048;-67
2021/07/13 06:02:42;;;;;;;15.88;12.10;;;;;;;21.91;68.02;95006.31;5066633;28;20036;-67
2021/07/13 06:05:10;;;;;;;19.70;11.75;;;;;;;22.04;67.17;95022.47;5084619;28;20043;-68
2021/07/13 06:07:44;;;;;;;16.73;11.90;;;;;;;22.21;67.07;95013.88;5086361;28;20036;-68
2021/07/13 06:10:16;;;;;;;19.75;12.93;;;;;;;22.39;65.77;95018.25;5083738;28;20044;-68
2021/07/13 06:12:42;;;;;;;21.25;11.90;;;;;;;22.41;65.96;95012.66;5083717;28;20531;-68
2021/07/13 06:15:10;;;;;;;18.45;11.07;;;;;;;22.58;66.11;95025.25;5084506;28;20101;-68
2021/07/13 06:17:39;;;;;;;21.33;10.77;;;;;;;22.71;64.51;95019.88;5084706;28;20043;-68
2021/07/13 06:20:07;;;;;;;15.13;12.27;;;;;;;22.83;64.83;95019.34;5084613;28;20036;-68
2021/07/13 06:22:33;;;;;;;21.33;11.45;;;;;;;22.97;65.23;95019.22;5084513;28;20040;-68
2021/07/13 06:25:00;;;;;;;17.20;11.68;;;;;;;23.09;63.67;95016.06;5084319;28;20048;-68
2021/07/13 06:27:27;;;;;;;19.00;10.98;;;;;;;23.22;63.59;95014.38;5084060;28;20044;-68
2021/07/13 06:29:54;;;;;;;13.98;10.60;;;;;;;23.28;62.07;95013.16;5083391;28;20067;-68
2021/07/13 06:32:21;;;;;;;15.00;10.93;;;;;;;23.43;62.72;95015.41;5083511;28;20055;-67
2021/07/13 06:34:47;;;;;;;14.40;10.27;;;;;;;23.48;62.39;95012.63;5083543;28;20935;-68
2021/07/13 06:37:14;;;;;;;15.00;10.90;;;;;;;23.69;62.10;95017.34;5084773;28;20044;-67
2021/07/13 06:39:41;;;;;;;19.80;10.55;;;;;;;23.79;60.25;95001.09;5084322;28;20036;-67
2021/07/13 06:42:11;;;;;;;19.05;11.40;;;;;;;23.87;60.50;95006.78;5087548;28;20040;-68
2021/07/13 06:44:37;;;;;;;19.60;12.50;;;;;;;24.01;59.56;95002.09;5087405;28;20039;-68
2021/07/13 06:47:04;;;;;;;16.80;11.45;;;;;;;24.08;59.10;95006.97;5087201;28;20046;-68
2021/07/13 06:49:31;;;;;;;20.88;10.48;;;;;;;24.24;59.58;95008.84;5087919;28;20075;-68
2021/07/13 06:51:58;;;;;;;15.40;10.68;;;;;;;24.08;59.79;95002.41;5087856;28;20048;-67
2021/07/13 06:54:27;;;;;;;13.38;10.52;;;;;;;24.19;59.35;94995.69;5086742;28;20123;-68
2021/07/13 06:56:54;;;;;;;16.27;10.35;;;;;;;24.31;57.64;95004.91;5087912;28;20427;-68
2021/07/13 06:59:21;;;;;;;21.05;10.13;;;;;;;24.50;57.35;95005.38;5089443;28;20043;-68
2021/07/13 07:01:47;;;;;;;25.17;11.25;;;;;;;24.63;56.99;95010.88;5089535;28;20039;-68
2021/07/13 07:04:16;;;;;;;13.93;10.18;;;;;;;24.81;55.81;94996.41;5088039;28;20043;-66
2021/07/13 07:06:42;;;;;;;20.02;10.10;;;;;;;24.97;55.47;95002.00;5087921;28;20043;-66
2021/07/13 07:09:09;;;;;;;14.02;10.38;;;;;;;25.16;56.13;95002.41;5089433;28;20040;-66
2021/07/13 07:11:37;;;;;;;11.30;9.63;;;;;;;25.37;56.62;95007.88;5087572;28;20115;-67
2021/07/13 07:14:04;;;;;;;21.88;9.65;;;;;;;25.58;53.68;95001.78;5088988;28;20036;-67
2021/07/13 07:16:31;;;;;;;15.77;9.88;;;;;;;25.69;53.34;94992.31;5087544;28;20075;-66
2021/07/13 07:18:58;;;;;;;19.02;9.68;;;;;;;25.78;52.26;94986.16;5068483;28;20055;-66
2021/07/13 07:21:25;;;;;;;15.35;8.90;;;;;;;25.96;53.33;94989.50;5087409;28;20535;-66
2021/07/13 07:23:52;;;;;;;15.25;8.98;;;;;;;26.05;52.36;94988.31;5089437;28;20911;-66
2021/07/13 07:26:19;;;;;;;10.98;9.20;;;;;;;26.21;51.17;94982.41;5088422;28;20035;-66
2021/07/13 07:28:45;;;;;;;11.88;8.48;;;;;;;26.34;50.21;94989.34;5087307;28;20129;-66
2021/07/13 07:36:41;;;;;;;11.07;8.90;;;;;;;26.50;47.89;94995.66;5108357;27;20144;-69
2021/07/13 07:39:09;;;;;;;14.05;9.07;;;;;;;26.42;50.70;94975.16;5119408;27;20056;-68
2021/07/13 07:41:35;;;;;;;16.00;9.38;;;;;;;26.76;50.90;94983.97;5118701;27;20051;-69
2021/07/13 07:44:02;;;;;;;17.05;8.15;;;;;;;26.89;45.92;94977.53;5119899;27;20051;-70
2021/07/13 07:46:29;;;;;;;26.40;8.27;;;;;;;27.13;45.55;94981.34;5104725;27;20054;-69
2021/07/13 07:48:58;;;;;;;11.65;8.15;;;;;;;27.13;45.38;94967.22;5121691;27;20052;-69
2021/07/13 07:51:25;;;;;;;15.77;7.38;;;;;;;27.33;44.80;94982.38;5123164;27;20047;-70
2021/07/13 07:53:54;;;;;;;12.55;7.60;;;;;;;27.45;45.99;94976.28;5118687;27;20054;-67
2021/07/13 07:56:21;;;;;;;15.80;8.15;;;;;;;27.61;43.69;94979.81;5119877;27;20058;-68
2021/07/13 07:58:47;;;;;;;18.10;8.20;;;;;;;27.70;42.85;94976.25;5122233;27;20117;-69
2021/07/13 08:01:16;;;;;;;11.40;8.38;;;;;;;27.72;42.88;94971.34;5121441;27;20124;-68
2021/07/13 08:03:43;;;;;;;13.68;8.75;;;;;;;27.81;42.25;94966.66;5118739;27;20047;-68
2021/07/13 08:06:10;;;;;;;11.40;7.95;;;;;;;28.01;45.01;94973.75;5124624;27;20066;-68
2021/07/13 08:08:37;;;;;;;13.13;7.80;;;;;;;28.12;42.11;94960.66;5123229;27;20572;-68
2021/07/13 08:11:04;;;;;;;13.88;7.45;;;;;;;28.27;41.60;94956.50;5123459;27;20062;-68
2021/07/13 08:13:31;;;;;;;16.45;7.07;;;;;;;28.53;40.20;94968.66;5123630;27;20046;-67
2021/07/13 08:15:58;;;;;;;16.08;7.85;;;;;;;28.66;39.99;94951.44;5121437;27;20516;-68
2021/07/13 08:18:25;;;;;;;11.73;7.97;;;;;;;28.85;40.29;94963.41;5121271;27;20492;-67
2021/07/13 08:20:52;;;;;;;20.30;8.00;;;;;;;28.98;40.94;94964.88;5117793;27;20063;-67
2021/07/13 08:23:19;;;;;;;11.52;7.78;;;;;;;28.94;39.63;94961.31;5120455;27;20466;-67
2021/07/13 08:25:46;;;;;;;10.63;7.57;;;;;;;29.10;39.52;94967.47;5121813;27;20147;-67
2021/07/13 08:28:13;;;;;;;9.95;7.90;;;;;;;29.32;39.45;94970.69;5120669;27;20043;-67
2021/07/13 08:30:40;;;;;;;11.10;7.95;;;;;;;29.41;38.12;94963.22;5120055;27;20051;-67
2021/07/13 08:33:06;;;;;;;9.25;8.13;;;;;;;29.55;39.89;94968.94;5120801;27;20059;-67
2021/07/13 08:35:33;;;;;;;11.98;7.78;;;;;;;29.64;40.86;94965.25;5097593;27;20047;-67
2021/07/13 08:38:00;;;;;;;9.27;7.85;;;;;;;29.79;39.67;94950.28;5121084;27;20516;-67
2021/07/13 08:40:29;;;;;;;13.32;8.25;;;;;;;30.23;39.71;94964.25;5120308;27;20244;-67
2021/07/13 08:42:56;;;;;;;9.57;7.22;;;;;;;30.55;37.26;94969.47;5102472;27;20082;-67
2021/07/13 08:45:24;;;;;;;19.67;6.95;;;;;;;30.73;38.02;94963.66;5120131;27;20595;-67
2021/07/13 08:47:52;;;;;;;10.88;7.93;;;;;;;30.64;37.03;94961.94;5107698;27;20051;-67
2021/07/13 08:50:20;;;;;;;16.05;7.32;;;;;;;30.31;35.37;94960.56;5104671;28;20051;-69
2021/07/13 08:52:48;;;;;;;21.05;8.25;;;;;;;30.28;34.85;94955.88;5107362;27;20067;-67
2021/07/13 08:55:15;;;;;;;9.07;7.47;;;;;;;30.34;36.76;94952.94;5106266;28;20043;-67
2021/07/13 08:57:43;;;;;;;12.60;7.63;;;;;;;30.76;36.60;94957.56;5107203;27;20063;-67
2021/07/13 09:00:14;;;;;;;16.05;8.07;;;;;;;30.94;36.18;94958.66;5106468;27;20564;-67
2021/07/13 09:03:06;;;;;;;10.93;7.32;;;;;;;31.09;37.51;94959.66;5106837;27;20527;-67
2021/07/13 09:05:47;;;;;;;11.85;7.53;;;;;;;31.41;37.27;94965.56;5107087;27;21464;-67
2021/07/13 09:08:14;;;;;;;10.73;7.15;;;;;;;31.48;36.64;94954.16;5107303;28;20055;-67
2021/07/13 09:10:58;;;;;;;9.88;7.32;;;;;;;31.82;35.21;94960.41;5089002;28;20038;-67
2021/07/13 09:13:30;;;;;;;11.73;7.57;;;;;;;32.26;32.65;94955.56;5107419;27;20409;-68
2021/07/13 09:16:00;;;;;;;10.40;7.40;;;;;;;32.57;31.59;94957.84;5089156;28;20041;-68
2021/07/13 09:18:29;;;;;;;10.57;7.32;;;;;;;32.69;30.81;94958.75;5106310;27;20525;-68
2021/07/13 09:21:25;;;;;;;15.98;7.28;;;;;;;32.75;30.06;94959.97;5105083;27;20056;-67
2021/07/13 09:24:08;;;;;;;13.13;7.67;;;;;;;32.77;30.35;94963.06;5097936;27;20788;-68
2021/07/13 09:26:54;;;;;;;12.48;6.68;;;;;;;32.56;30.79;94956.28;5104678;27;20056;-68
2021/07/13 09:29:35;;;;;;;14.93;7.10;;;;;;;32.80;30.67;94958.88;5107534;27;20748;-68
2021/07/13 09:32:31;;;;;;;8.30;6.32;;;;;;;32.96;29.96;94956.69;5104975;28;20424;-68
2021/07/13 09:35:13;;;;;;;10.30;6.50;;;;;;;33.13;28.43;94971.50;5106006;28;20052;-68
2021/07/13 09:37:47;;;;;;;7.63;6.28;;;;;;;33.47;29.68;94966.00;5102424;28;20489;-67
2021/07/13 09:40:18;;;;;;;9.40;6.40;;;;;;;33.80;28.05;94969.69;5107563;28;20065;-68
2021/07/13 09:42:50;;;;;;;10.00;6.03;;;;;;;34.14;28.73;94966.78;5105303;28;20036;-68
2021/07/13 09:45:20;;;;;;;7.95;6.28;;;;;;;34.17;25.95;94966.03;5088450;27;20034;-69
2021/07/13 09:47:48;;;;;;;13.90;6.22;;;;;;;34.07;26.84;94968.31;5106158;27;20150;-69
2021/07/13 09:50:35;;;;;;;11.65;7.07;;;;;;;34.33;27.08;94961.09;5106942;28;20115;-68
2021/07/13 09:53:03;;;;;;;10.50;6.40;;;;;;;34.33;25.79;94966.50;5087832;28;20039;-68
2021/07/13 09:55:31;;;;;;;7.85;6.00;;;;;;;34.52;25.71;94964.59;5107039;28;20111;-68
2021/07/13 09:58:18;;;;;;;7.85;5.40;;;;;;;34.80;24.87;94953.88;5087254;28;20047;-68
2021/07/13 10:00:57;;;;;;;12.25;6.05;;;;;;;35.11;25.73;94951.59;5088794;28;20524;-68
2021/07/13 10:03:27;;;;;;;10.07;7.20;;;;;;;35.03;26.46;94952.75;5105546;27;20577;-68
2021/07/13 10:05:54;;;;;;;7.82;7.03;;;;;;;35.15;25.96;94952.38;5107061;28;20093;-68
2021/07/13 10:08:22;;;;;;;12.75;6.93;;;;;;;35.30;28.33;94949.69;5105596;28;20053;-70
2021/07/13 10:10:51;;;;;;;7.88;7.05;;;;;;;35.50;26.46;94929.16;5105400;28;20039;-68
2021/07/13 10:13:18;;;;;;;10.15;6.55;;;;;;;35.55;25.80;94947.72;5105592;28;20073;-68
2021/07/13 10:15:48;;;;;;;7.78;6.43;;;;;;;35.78;25.40;94949.25;5106346;27;20042;-68
2021/07/13 10:18:20;;;;;;;8.55;6.90;;;;;;;35.94;25.13;94951.50;5105731;28;20103;-68
2021/07/13 10:20:49;;;;;;;8.32;6.20;;;;;;;36.15;23.53;94950.69;5106659;28;20044;-69
2021/07/13 10:23:16;;;;;;;9.93;6.35;;;;;;;36.32;23.17;94949.88;5106393;28;20063;-68
2021/07/13 10:25:44;;;;;;;8.35;6.10;;;;;;;36.47;21.89;94944.38;5107324;28;20074;-68
2021/07/13 10:28:12;;;;;;;5.80;5.30;;;;;;;36.68;20.99;94938.06;5106282;28;20039;-69
2021/07/13 10:30:45;;;;;;;7.95;5.97;;;;;;;36.89;21.25;94937.91;5106338;28;20063;-68
2021/07/13 10:33:29;;;;;;;6.50;5.90;;;;;;;37.14;20.14;94941.63;5106765;28;20520;-68
2021/07/13 10:36:16;;;;;;;6.35;5.47;;;;;;;36.90;20.56;94933.28;5103324;28;20083;-67
2021/07/13 10:38:43;;;;;;;12.45;6.32;;;;;;;36.55;21.97;94935.00;5106286;27;20039;-68
2021/07/13 10:41:30;;;;;;;9.57;6.47;;;;;;;36.79;21.66;94937.97;5104864;28;20110;-68
2021/07/13 10:43:56;;;;;;;9.00;7.13;;;;;;;37.02;21.67;94921.91;5105026;28;20047;-67
2021/07/13 10:46:23;;;;;;;9.70;7.22;;;;;;;37.13;23.45;94924.53;5091754;28;20075;-68
2021/07/13 10:49:17;;;;;;;8.75;6.35;;;;;;;37.17;22.06;94919.09;5108122;27;20039;-67
2021/07/13 10:51:44;;;;;;;7.38;6.47;;;;;;;36.57;21.93;94921.81;5104970;28;20047;-67
2021/07/13 10:54:11;;;;;;;12.52;6.18;;;;;;;36.69;21.24;94918.66;5107747;27;20048;-68
2021/07/13 10:56:38;;;;;;;10.45;6.22;;;;;;;36.99;21.10;94922.72;5105082;28;20040;-68
2021/07/13 10:59:24;;;;;;;12.25;6.35;;;;;;;36.46;23.24;94921.13;5107575;27;20050;-68
2021/07/13 11:02:09;;;;;;;8.57;6.20;;;;;;;37.28;21.06;94914.38;5109284;27;20059;-67
2021/07/13 11:04:36;;;;;;;10.00;5.38;;;;;;;36.64;21.51;94915.59;5108998;27;20043;-68
2021/07/13 11:07:04;;;;;;;12.23;6.00;;;;;;;36.66;22.27;94919.47;5107356;27;20599;-67
2021/07/13 11:09:32;;;;;;;11.98;5.45;;;;;;;36.28;21.48;94903.00;5104437;28;20049;-67
2021/07/13 11:12:10;;;;;;;14.73;6.82;;;;;;;36.96;21.46;94904.53;5107122;27;20051;-68
2021/07/13 11:14:51;;;;;;;14.55;6.20;;;;;;;37.45;21.25;94897.13;5109156;27;20424;-67
2021/07/13 11:17:19;;;;;;;8.07;5.85;;;;;;;37.76;19.88;94899.94;5104838;28;20036;-68
2021/07/13 11:19:47;;;;;;;10.95;5.78;;;;;;;37.99;19.89;94901.22;5078451;28;20123;-67
2021/07/13 11:22:18;;;;;;;11.30;5.75;;;;;;;37.94;20.41;94898.94;5109210;27;20634;-67
2021/07/13 11:24:46;;;;;;;11.95;5.22;;;;;;;38.24;19.47;94895.50;5103763;28;20119;-67
2021/07/13 11:27:12;;;;;;;10.73;6.10;;;;;;;38.17;21.78;94874.59;5104120;28;20052;-67
2021/07/13 11:29:50;;;;;;;14.65;5.78;;;;;;;37.59;21.86;94890.00;5105068;28;20564;-67
2021/07/13 11:32:16;;;;;;;7.28;5.30;;;;;;;38.13;20.47;94895.63;5103835;28;20054;-67
2021/07/13 11:34:43;;;;;;;8.57;5.53;;;;;;;38.87;19.23;94886.06;5103314;28;20101;-67
2021/07/13 11:37:10;;;;;;;8.30;4.95;;;;;;;38.78;18.22;94889.31;5102024;28;20111;-67
2021/07/13 11:39:39;;;;;;;10.32;5.88;;;;;;;38.93;18.45;94879.75;5105790;28;20042;-67